createdAt,value
2016-05-18T00:00:01.803Z,80.8
2016-05-18T00:00:11.634Z,80.6
2016-05-18T00:00:21.634Z,80.7
2016-05-18T00:00:31.634Z,80.6
2016-05-18T00:00:41.806Z,81
2016-05-18T00:00:51.806Z,81.1
2016-05-18T00:01:01.791Z,81.1
2016-05-18T00:01:11.636Z,81.1
2016-05-18T00:01:21.652Z,81
2016-05-18T00:01:31.808Z,81.1
2016-05-18T00:01:41.808Z,81.2
2016-05-18T00:01:51.808Z,81.1
2016-05-18T00:02:01.668Z,81.1
2016-05-18T00:02:11.812Z,81.4
2016-05-18T00:02:21.797Z,81.3
2016-05-18T00:02:31.812Z,81.1
2016-05-18T00:02:41.812Z,81.1
2016-05-18T00:02:51.828Z,81.3
2016-05-18T00:03:01.687Z,81.2
2016-05-18T00:03:11.830Z,81.1
2016-05-18T00:03:21.830Z,81.3
2016-05-18T00:03:31.830Z,81.3
2016-05-18T00:03:41.830Z,81.5
2016-05-18T00:03:51.830Z,81.2
2016-05-18T00:04:01.674Z,81.3
2016-05-18T00:04:11.833Z,81.3
2016-05-18T00:04:21.833Z,81.6
2016-05-18T00:04:31.864Z,81.5
2016-05-18T00:04:41.849Z,81.2
2016-05-18T00:04:51.849Z,81.9
2016-05-18T00:05:01.849Z,81.2
2016-05-18T00:05:11.852Z,81.7
2016-05-18T00:05:21.711Z,81.7
2016-05-18T00:05:31.711Z,81.5
2016-05-18T00:05:41.852Z,81.5
2016-05-18T00:05:51.867Z,81.6
2016-05-18T00:06:01.867Z,81.6
2016-05-18T00:06:11.729Z,81.3
2016-05-18T00:06:21.713Z,81.3
2016-05-18T00:06:31.869Z,81.9
2016-05-18T00:06:41.869Z,82
2016-05-18T00:06:51.869Z,81.8
2016-05-18T00:07:01.713Z,81.8
2016-05-18T00:07:11.872Z,81.6
2016-05-18T00:07:21.966Z,81.8
2016-05-18T00:07:31.888Z,81.6
2016-05-18T00:07:41.888Z,81.6
2016-05-18T00:07:51.888Z,81.7
2016-05-18T00:08:02.044Z,81.5
2016-05-18T00:08:12.124Z,81.7
2016-05-18T00:08:21.890Z,82
2016-05-18T00:08:31.890Z,81.6
2016-05-18T00:08:41.890Z,81.4
2016-05-18T00:08:51.905Z,81.8
2016-05-18T00:09:01.905Z,81.9
2016-05-18T00:09:11.752Z,82
2016-05-18T00:09:21.908Z,81.9
2016-05-18T00:09:31.908Z,81.8
2016-05-18T00:09:41.908Z,82
2016-05-18T00:09:51.908Z,82.1
2016-05-18T00:10:03.271Z,81.9
2016-05-18T00:10:14.396Z,81.9
2016-05-18T00:10:24.068Z,82.3
2016-05-18T00:10:33.911Z,81.9
2016-05-18T00:10:43.896Z,81.8
2016-05-18T00:10:54.474Z,82.1
2016-05-18T00:11:03.930Z,81.9
2016-05-18T00:11:13.946Z,82.1
2016-05-18T00:11:23.993Z,82.2
2016-05-18T00:11:34.196Z,82.2
2016-05-18T00:11:42.071Z,82.5
2016-05-18T00:11:52.149Z,82.2
2016-05-18T00:12:02.180Z,82.3
2016-05-18T00:12:12.229Z,82.3
2016-05-18T00:12:22.651Z,82.3
2016-05-18T00:12:32.291Z,82.4
2016-05-18T00:12:42.745Z,82.2
2016-05-18T00:12:52.010Z,82.1
2016-05-18T00:13:01.948Z,82.2
2016-05-18T00:13:12.748Z,82.4
2016-05-18T00:13:22.388Z,82.4
2016-05-18T00:13:32.404Z,82.3
2016-05-18T00:13:42.857Z,82.3
2016-05-18T00:13:52.263Z,82.4
2016-05-18T00:14:01.810Z,82.5
2016-05-18T00:14:12.438Z,82.4
2016-05-18T00:14:22.391Z,82.4
2016-05-18T00:14:32.141Z,82.4
2016-05-18T00:14:41.969Z,82.5
2016-05-18T00:14:53.266Z,82.4
2016-05-18T00:15:03.987Z,82.4
2016-05-18T00:15:13.518Z,82.3
2016-05-18T00:15:21.987Z,82.4
2016-05-18T00:15:32.096Z,82.4
2016-05-18T00:15:42.221Z,82.4
2016-05-18T00:15:52.753Z,82.4
2016-05-18T00:16:02.096Z,82.3
2016-05-18T00:16:12.599Z,82.3
2016-05-18T00:16:23.302Z,82.3
2016-05-18T00:16:32.927Z,82.5
2016-05-18T00:16:43.506Z,82.4
2016-05-18T00:16:52.740Z,82.4
2016-05-18T00:17:01.849Z,82.4
2016-05-18T00:17:12.399Z,82.4
2016-05-18T00:17:22.337Z,82.3
2016-05-18T00:17:32.102Z,82.5
2016-05-18T00:17:42.055Z,82.3
2016-05-18T00:17:52.024Z,82.4
2016-05-18T00:18:02.009Z,82.3
2016-05-18T00:18:12.012Z,82.4
2016-05-18T00:18:21.871Z,82.3
2016-05-18T00:18:32.027Z,82.5
2016-05-18T00:18:41.887Z,82.4
2016-05-18T00:18:51.871Z,82.4
2016-05-18T00:19:02.027Z,82.4
2016-05-18T00:19:12.029Z,82.3
2016-05-18T00:19:21.873Z,82.4
2016-05-18T00:19:32.029Z,82.5
2016-05-18T00:19:42.029Z,82.5
2016-05-18T00:19:52.029Z,82.5
2016-05-18T00:20:02.045Z,82.5
2016-05-18T00:20:12.032Z,82.3
2016-05-18T00:20:22.048Z,82.5
2016-05-18T00:20:32.063Z,82.3
2016-05-18T00:20:42.048Z,82.5
2016-05-18T00:20:51.892Z,82.5
2016-05-18T00:21:02.048Z,82.2
2016-05-18T00:21:12.050Z,82.3
2016-05-18T00:21:22.050Z,82.5
2016-05-18T00:21:32.050Z,82.5
2016-05-18T00:21:42.050Z,82.3
2016-05-18T00:21:52.065Z,82.5
2016-05-18T00:22:01.909Z,82.3
2016-05-18T00:22:12.068Z,82.5
2016-05-18T00:22:22.084Z,82.5
2016-05-18T00:22:32.068Z,82.5
2016-05-18T00:22:42.100Z,82.5
2016-05-18T00:22:52.068Z,82.3
2016-05-18T00:23:02.787Z,82.3
2016-05-18T00:23:12.040Z,82.8
2016-05-18T00:23:22.071Z,82.9
2016-05-18T00:23:32.087Z,82.8
2016-05-18T00:23:42.087Z,82.9
2016-05-18T00:23:51.931Z,82.6
2016-05-18T00:24:02.087Z,82.6
2016-05-18T00:24:11.933Z,82.8
2016-05-18T00:24:22.089Z,82.8
2016-05-18T00:24:32.089Z,82.4
2016-05-18T00:24:42.089Z,82.5
2016-05-18T00:24:52.105Z,82.6
2016-05-18T00:25:02.105Z,82.7
2016-05-18T00:25:12.109Z,82.6
2016-05-18T00:25:22.093Z,82.4
2016-05-18T00:25:32.109Z,82.5
2016-05-18T00:25:42.109Z,82.7
2016-05-18T00:25:51.796Z,82.7
2016-05-18T00:26:02.109Z,82.7
2016-05-18T00:26:12.111Z,82.7
2016-05-18T00:26:22.111Z,83
2016-05-18T00:26:32.126Z,82.8
2016-05-18T00:26:42.111Z,83.1
2016-05-18T00:26:52.111Z,83.1
2016-05-18T00:27:02.111Z,82.9
2016-05-18T00:27:11.972Z,83.2
2016-05-18T00:27:22.113Z,83
2016-05-18T00:27:32.128Z,83
2016-05-18T00:27:42.128Z,82.9
2016-05-18T00:27:52.128Z,83.3
2016-05-18T00:28:02.128Z,83
2016-05-18T00:28:12.131Z,83.3
2016-05-18T00:28:22.131Z,83.3
2016-05-18T00:28:32.131Z,83.1
2016-05-18T00:28:42.147Z,83.2
2016-05-18T00:28:52.147Z,83.1
2016-05-18T00:29:02.163Z,83.2
2016-05-18T00:29:11.994Z,83.2
2016-05-18T00:29:22.150Z,83.3
2016-05-18T00:29:31.994Z,83.2
2016-05-18T00:29:42.150Z,83.1
2016-05-18T00:29:51.994Z,83.1
2016-05-18T00:30:02.009Z,83
2016-05-18T00:30:12.012Z,83.3
2016-05-18T00:30:22.169Z,83.2
2016-05-18T00:30:32.012Z,83.3
2016-05-18T00:30:42.012Z,83.3
2016-05-18T00:30:52.169Z,83.2
2016-05-18T00:31:02.169Z,83.2
2016-05-18T00:31:12.171Z,83.3
2016-05-18T00:31:22.171Z,83.2
2016-05-18T00:31:32.171Z,83.2
2016-05-18T00:31:42.186Z,83.1
2016-05-18T00:31:52.186Z,82.7
2016-05-18T00:32:02.202Z,83.2
2016-05-18T00:32:12.190Z,82.7
2016-05-18T00:32:22.206Z,83.2
2016-05-18T00:32:32.190Z,83.3
2016-05-18T00:32:42.206Z,83.2
2016-05-18T00:32:52.190Z,83.2
2016-05-18T00:33:02.190Z,83.1
2016-05-18T00:33:12.192Z,83.4
2016-05-18T00:33:22.192Z,83.2
2016-05-18T00:33:32.223Z,83.3
2016-05-18T00:33:42.208Z,83.1
2016-05-18T00:33:52.208Z,83.2
2016-05-18T00:34:02.208Z,83.2
2016-05-18T00:34:12.210Z,83
2016-05-18T00:34:21.913Z,83.2
2016-05-18T00:34:32.210Z,83
2016-05-18T00:34:42.085Z,83.2
2016-05-18T00:34:52.225Z,83.3
2016-05-18T00:35:02.225Z,83.1
2016-05-18T00:35:12.072Z,83
2016-05-18T00:35:22.213Z,83.2
2016-05-18T00:35:32.072Z,83.1
2016-05-18T00:35:42.244Z,83.2
2016-05-18T00:35:52.228Z,82.9
2016-05-18T00:36:02.244Z,82.9
2016-05-18T00:36:12.231Z,82.9
2016-05-18T00:36:22.231Z,83.1
2016-05-18T00:36:32.231Z,82.4
2016-05-18T00:36:42.231Z,82.9
2016-05-18T00:36:52.247Z,83
2016-05-18T00:37:02.231Z,83
2016-05-18T00:37:12.093Z,82.4
2016-05-18T00:37:22.093Z,83.2
2016-05-18T00:37:32.249Z,83
2016-05-18T00:37:42.983Z,83
2016-05-18T00:37:52.108Z,82.8
2016-05-18T00:38:02.187Z,83.3
2016-05-18T00:38:12.144Z,83.2
2016-05-18T00:38:22.112Z,83.3
2016-05-18T00:38:32.269Z,83.3
2016-05-18T00:38:42.112Z,83.1
2016-05-18T00:38:52.269Z,83
2016-05-18T00:39:02.269Z,83
2016-05-18T00:39:12.130Z,82.9
2016-05-18T00:39:22.161Z,83
2016-05-18T00:39:32.271Z,83
2016-05-18T00:39:42.271Z,83
2016-05-18T00:39:52.271Z,83.1
2016-05-18T00:40:02.286Z,83.1
2016-05-18T00:40:12.132Z,82.9
2016-05-18T00:40:22.288Z,83.1
2016-05-18T00:40:32.288Z,83.1
2016-05-18T00:40:42.288Z,82.7
2016-05-18T00:40:51.991Z,82.7
2016-05-18T00:41:02.288Z,82.5
2016-05-18T00:41:12.308Z,82.7
2016-05-18T00:41:22.292Z,82.5
2016-05-18T00:41:32.152Z,82.8
2016-05-18T00:41:42.292Z,82.6
2016-05-18T00:41:52.308Z,82.8
2016-05-18T00:42:02.308Z,82.5
2016-05-18T00:42:12.310Z,82.7
2016-05-18T00:42:22.326Z,82.6
2016-05-18T00:42:32.310Z,82.7
2016-05-18T00:42:42.326Z,82.4
2016-05-18T00:42:52.169Z,82.8
2016-05-18T00:43:02.310Z,82.7
2016-05-18T00:43:12.015Z,82.5
2016-05-18T00:43:22.328Z,82.6
2016-05-18T00:43:32.328Z,82.7
2016-05-18T00:43:42.171Z,82.5
2016-05-18T00:43:52.343Z,82.7
2016-05-18T00:44:02.359Z,82.6
2016-05-18T00:44:12.332Z,82.7
2016-05-18T00:44:22.332Z,82.4
2016-05-18T00:44:32.332Z,82.4
2016-05-18T00:44:42.363Z,82.4
2016-05-18T00:44:52.191Z,82.4
2016-05-18T00:45:02.347Z,82.3
2016-05-18T00:45:12.365Z,82.1
2016-05-18T00:45:22.365Z,82.2
2016-05-18T00:45:32.349Z,82.4
2016-05-18T00:45:42.365Z,82.2
2016-05-18T00:45:52.349Z,82.2
2016-05-18T00:46:02.349Z,82.1
2016-05-18T00:46:12.212Z,82.1
2016-05-18T00:46:22.227Z,82.1
2016-05-18T00:46:32.212Z,82.5
2016-05-18T00:46:42.383Z,82.3
2016-05-18T00:46:52.368Z,82.6
2016-05-18T00:47:02.368Z,82.4
2016-05-18T00:47:12.245Z,82.1
2016-05-18T00:47:22.370Z,82.1
2016-05-18T00:47:32.370Z,82.1
2016-05-18T00:47:42.370Z,82.2
2016-05-18T00:47:52.385Z,81.8
2016-05-18T00:48:02.370Z,81.9
2016-05-18T00:48:12.388Z,82.1
2016-05-18T00:48:22.388Z,82
2016-05-18T00:48:32.388Z,82.1
2016-05-18T00:48:42.388Z,82.1
2016-05-18T00:48:52.388Z,82
2016-05-18T00:49:02.248Z,82
2016-05-18T00:49:12.390Z,81.9
2016-05-18T00:49:22.406Z,81.9
2016-05-18T00:49:32.250Z,81.8
2016-05-18T00:49:42.406Z,82.1
2016-05-18T00:49:52.406Z,81.9
2016-05-18T00:50:02.406Z,81.9
2016-05-18T00:50:12.254Z,81.8
2016-05-18T00:50:22.269Z,81.8
2016-05-18T00:50:32.410Z,81.9
2016-05-18T00:50:42.410Z,81.9
2016-05-18T00:50:52.410Z,81.8
2016-05-18T00:51:02.410Z,81.8
2016-05-18T00:51:12.428Z,81.9
2016-05-18T00:51:22.428Z,82.2
2016-05-18T00:51:32.428Z,81.8
2016-05-18T00:51:42.428Z,81.8
2016-05-18T00:51:52.428Z,81.9
2016-05-18T00:52:02.428Z,82.2
2016-05-18T00:52:12.274Z,82.2
2016-05-18T00:52:22.134Z,82.2
2016-05-18T00:52:32.446Z,82.1
2016-05-18T00:52:42.837Z,82.1
2016-05-18T00:52:52.634Z,82.2
2016-05-18T00:53:02.306Z,82
2016-05-18T00:53:12.449Z,82
2016-05-18T00:53:22.512Z,82.1
2016-05-18T00:53:32.481Z,82
2016-05-18T00:53:42.449Z,81.9
2016-05-18T00:53:52.481Z,82
2016-05-18T00:54:02.449Z,82
2016-05-18T00:54:12.295Z,82.1
2016-05-18T00:54:22.451Z,82.1
2016-05-18T00:54:32.483Z,82.1
2016-05-18T00:54:42.467Z,82
2016-05-18T00:54:52.467Z,82.1
2016-05-18T00:55:02.467Z,82
2016-05-18T00:55:12.470Z,82.1
2016-05-18T00:55:22.314Z,82
2016-05-18T00:55:32.470Z,81.9
2016-05-18T00:55:42.314Z,81.9
2016-05-18T00:55:52.486Z,82.1
2016-05-18T00:56:02.329Z,82.1
2016-05-18T00:56:12.488Z,81.9
2016-05-18T00:56:22.488Z,82
2016-05-18T00:56:32.331Z,82.1
2016-05-18T00:56:42.488Z,82.1
2016-05-18T00:56:52.488Z,81.4
2016-05-18T00:57:02.331Z,82.1
2016-05-18T00:57:12.491Z,82
2016-05-18T00:57:22.491Z,81.6
2016-05-18T00:57:32.522Z,81.7
2016-05-18T00:57:42.366Z,81.7
2016-05-18T00:57:52.506Z,81.6
2016-05-18T00:58:02.506Z,81.7
2016-05-18T00:58:12.369Z,81.7
2016-05-18T00:58:22.509Z,81.7
2016-05-18T00:58:32.384Z,81.7
2016-05-18T00:58:42.509Z,81.7
2016-05-18T00:58:52.509Z,81.7
2016-05-18T00:59:02.525Z,81.7
2016-05-18T00:59:12.372Z,81.5
2016-05-18T00:59:22.372Z,81.5
2016-05-18T00:59:32.528Z,81.6
2016-05-18T00:59:42.528Z,81.7
2016-05-18T00:59:52.543Z,81.6
2016-05-18T01:00:02.528Z,81.7
2016-05-18T01:00:12.530Z,81.5
2016-05-18T01:00:22.374Z,81.7
2016-05-18T01:00:32.530Z,81.9
2016-05-18T01:00:42.530Z,81.6
2016-05-18T01:00:52.530Z,81.9
2016-05-18T01:01:02.545Z,81.8
2016-05-18T01:01:12.392Z,81.6
2016-05-18T01:01:22.564Z,81.6
2016-05-18T01:01:32.548Z,82
2016-05-18T01:01:42.548Z,82
2016-05-18T01:01:52.548Z,81.9
2016-05-18T01:02:02.548Z,81.9
2016-05-18T01:02:12.411Z,81.6
2016-05-18T01:02:22.551Z,81.8
2016-05-18T01:02:32.551Z,81.5
2016-05-18T01:02:42.567Z,81.9
2016-05-18T01:02:52.411Z,81.7
2016-05-18T01:03:02.630Z,81.8
2016-05-18T01:03:12.569Z,81.5
2016-05-18T01:03:22.569Z,81.6
2016-05-18T01:03:32.428Z,81.8
2016-05-18T01:03:42.428Z,81.6
2016-05-18T01:03:52.585Z,81.5
2016-05-18T01:04:02.585Z,81.8
2016-05-18T01:04:12.572Z,81.7
2016-05-18T01:04:22.431Z,81.3
2016-05-18T01:04:32.588Z,81.2
2016-05-18T01:04:42.431Z,81.6
2016-05-18T01:04:52.588Z,81.1
2016-05-18T01:05:02.588Z,81
2016-05-18T01:05:12.606Z,81.2
2016-05-18T01:05:22.606Z,81.3
2016-05-18T01:05:32.434Z,81.2
2016-05-18T01:05:42.450Z,81.2
2016-05-18T01:05:52.450Z,81.5
2016-05-18T01:06:02.622Z,81.3
2016-05-18T01:06:12.594Z,81.5
2016-05-18T01:06:22.609Z,81.5
2016-05-18T01:06:32.625Z,81.2
2016-05-18T01:06:42.469Z,81.3
2016-05-18T01:06:52.469Z,81.2
2016-05-18T01:07:02.609Z,81.5
2016-05-18T01:07:12.471Z,81.3
2016-05-18T01:07:22.611Z,81.5
2016-05-18T01:07:32.658Z,81.2
2016-05-18T01:07:42.705Z,81.4
2016-05-18T01:07:53.643Z,81.2
2016-05-18T01:08:02.689Z,81.1
2016-05-18T01:08:12.474Z,81.1
2016-05-18T01:08:22.474Z,81.2
2016-05-18T01:08:32.630Z,81.1
2016-05-18T01:08:42.630Z,81
2016-05-18T01:08:52.505Z,81
2016-05-18T01:09:02.489Z,81
2016-05-18T01:09:12.492Z,81
2016-05-18T01:09:22.649Z,81
2016-05-18T01:09:32.508Z,81
2016-05-18T01:09:42.649Z,81
2016-05-18T01:09:52.649Z,81
2016-05-18T01:10:02.664Z,81
2016-05-18T01:10:12.651Z,81
2016-05-18T01:10:22.666Z,81
2016-05-18T01:10:32.651Z,81
2016-05-18T01:10:42.526Z,81
2016-05-18T01:10:52.666Z,81.1
2016-05-18T01:11:02.666Z,81.1
2016-05-18T01:11:12.513Z,81
2016-05-18T01:11:22.685Z,80.9
2016-05-18T01:11:32.685Z,80.9
2016-05-18T01:11:42.669Z,81
2016-05-18T01:11:52.529Z,80.9
2016-05-18T01:12:02.685Z,80.7
2016-05-18T01:12:12.687Z,80.8
2016-05-18T01:12:22.702Z,80.7
2016-05-18T01:12:32.702Z,81
2016-05-18T01:12:42.687Z,80.7
2016-05-18T01:12:52.531Z,80.8
2016-05-18T01:13:02.687Z,80.8
2016-05-18T01:13:12.691Z,80.7
2016-05-18T01:13:22.550Z,80.8
2016-05-18T01:13:32.706Z,80.9
2016-05-18T01:13:42.706Z,80.9
2016-05-18T01:13:52.706Z,80.9
2016-05-18T01:14:02.550Z,80.9
2016-05-18T01:14:12.708Z,80.9
2016-05-18T01:14:22.708Z,81
2016-05-18T01:14:32.412Z,81
2016-05-18T01:14:42.568Z,81.2
2016-05-18T01:14:52.708Z,81.1
2016-05-18T01:15:02.724Z,81
2016-05-18T01:15:12.726Z,81.1
2016-05-18T01:15:22.726Z,81.1
2016-05-18T01:15:32.726Z,81
2016-05-18T01:15:42.710Z,81
2016-05-18T01:15:52.726Z,80.3
2016-05-18T01:16:02.742Z,80.8
2016-05-18T01:16:12.729Z,80.9
2016-05-18T01:16:22.745Z,80.4
2016-05-18T01:16:32.729Z,80.9
2016-05-18T01:16:42.729Z,80.3
2016-05-18T01:16:52.588Z,80.3
2016-05-18T01:17:02.729Z,81
2016-05-18T01:17:12.748Z,80.9
2016-05-18T01:17:22.748Z,80.2
2016-05-18T01:17:32.763Z,80.7
2016-05-18T01:17:42.748Z,80.4
2016-05-18T01:17:52.748Z,80.5
2016-05-18T01:18:02.654Z,80.4
2016-05-18T01:18:12.766Z,80.5
2016-05-18T01:18:22.766Z,80.5
2016-05-18T01:18:32.751Z,80.7
2016-05-18T01:18:42.766Z,80.4
2016-05-18T01:18:52.782Z,80.4
2016-05-18T01:19:02.766Z,80.7
2016-05-18T01:19:12.768Z,80.5
2016-05-18T01:19:22.768Z,80.5
2016-05-18T01:19:32.768Z,80.4
2016-05-18T01:19:42.768Z,80.7
2016-05-18T01:19:52.784Z,80.5
2016-05-18T01:20:02.675Z,80.5
2016-05-18T01:20:12.788Z,80.7
2016-05-18T01:20:22.788Z,80.6
2016-05-18T01:20:32.788Z,80.7
2016-05-18T01:20:42.632Z,80.7
2016-05-18T01:20:52.788Z,80.6
2016-05-18T01:21:02.647Z,80.5
2016-05-18T01:21:12.806Z,80.5
2016-05-18T01:21:22.806Z,80.7
2016-05-18T01:21:32.806Z,80.4
2016-05-18T01:21:42.806Z,80.3
2016-05-18T01:21:52.806Z,80.6
2016-05-18T01:22:02.806Z,80.4
2016-05-18T01:22:12.809Z,80.7
2016-05-18T01:22:22.809Z,80.4
2016-05-18T01:22:33.090Z,80.3
2016-05-18T01:22:42.527Z,80.4
2016-05-18T01:22:53.402Z,80.7
2016-05-18T01:23:02.840Z,80.7
2016-05-18T01:23:13.357Z,80.7
2016-05-18T01:23:23.170Z,80.7
2016-05-18T01:23:32.670Z,80.5
2016-05-18T01:23:42.826Z,80.8
2016-05-18T01:23:52.826Z,80.7
2016-05-18T01:24:02.670Z,80.6
2016-05-18T01:24:12.688Z,80.5
2016-05-18T01:24:22.844Z,80.6
2016-05-18T01:24:32.844Z,80.4
2016-05-18T01:24:42.844Z,80.2
2016-05-18T01:24:52.859Z,80.3
2016-05-18T01:25:02.859Z,80.9
2016-05-18T01:25:12.692Z,80.8
2016-05-18T01:25:22.848Z,80.9
2016-05-18T01:25:32.848Z,81.1
2016-05-18T01:25:42.848Z,81.1
2016-05-18T01:25:52.848Z,81
2016-05-18T01:26:02.863Z,81
2016-05-18T01:26:12.865Z,81.2
2016-05-18T01:26:22.709Z,81
2016-05-18T01:26:32.865Z,81.1
2016-05-18T01:26:42.865Z,81.2
2016-05-18T01:26:52.865Z,81.2
2016-05-18T01:27:02.865Z,81.1
2016-05-18T01:27:12.884Z,81.1
2016-05-18T01:27:22.884Z,81.1
2016-05-18T01:27:32.868Z,81.2
2016-05-18T01:27:42.884Z,81
2016-05-18T01:27:52.884Z,81.2
2016-05-18T01:28:02.728Z,81.2
2016-05-18T01:28:12.887Z,81.2
2016-05-18T01:28:22.887Z,81.2
2016-05-18T01:28:32.887Z,81.2
2016-05-18T01:28:42.918Z,80.9
2016-05-18T01:28:52.903Z,80.9
2016-05-18T01:29:02.918Z,81
2016-05-18T01:29:12.905Z,81
2016-05-18T01:29:22.905Z,81
2016-05-18T01:29:32.905Z,81
2016-05-18T01:29:42.592Z,80.9
2016-05-18T01:29:52.905Z,81
2016-05-18T01:30:02.920Z,80.9
2016-05-18T01:30:12.908Z,81
2016-05-18T01:30:22.908Z,81
2016-05-18T01:30:32.908Z,81
2016-05-18T01:30:42.923Z,80.9
2016-05-18T01:30:52.908Z,80.9
2016-05-18T01:31:02.908Z,81
2016-05-18T01:31:12.769Z,81
2016-05-18T01:31:22.925Z,81.1
2016-05-18T01:31:32.925Z,81
2016-05-18T01:31:42.769Z,81
2016-05-18T01:31:52.925Z,80.8
2016-05-18T01:32:02.941Z,81
2016-05-18T01:32:12.929Z,81
2016-05-18T01:32:22.945Z,80.9
2016-05-18T01:32:32.929Z,81
2016-05-18T01:32:42.945Z,81.1
2016-05-18T01:32:52.945Z,81
2016-05-18T01:33:02.945Z,81.1
2016-05-18T01:33:12.963Z,81.1
2016-05-18T01:33:22.791Z,81
2016-05-18T01:33:32.963Z,81.2
2016-05-18T01:33:42.963Z,81
2016-05-18T01:33:52.806Z,81.2
2016-05-18T01:34:02.963Z,81.1
2016-05-18T01:34:12.966Z,81
2016-05-18T01:34:22.966Z,81.1
2016-05-18T01:34:32.981Z,81.2
2016-05-18T01:34:42.966Z,81.2
2016-05-18T01:34:52.809Z,81
2016-05-18T01:35:02.981Z,80.9
2016-05-18T01:35:12.827Z,81
2016-05-18T01:35:22.827Z,80.9
2016-05-18T01:35:32.983Z,80.9
2016-05-18T01:35:42.983Z,81
2016-05-18T01:35:52.827Z,81
2016-05-18T01:36:02.999Z,80.9
2016-05-18T01:36:12.830Z,81.3
2016-05-18T01:36:22.846Z,81.2
2016-05-18T01:36:32.986Z,81.2
2016-05-18T01:36:43.002Z,81.1
2016-05-18T01:36:52.846Z,81
2016-05-18T01:37:02.846Z,81
2016-05-18T01:37:13.005Z,81
2016-05-18T01:37:23.005Z,81
2016-05-18T01:37:32.849Z,81.2
2016-05-18T01:37:43.255Z,81
2016-05-18T01:37:53.349Z,80.9
2016-05-18T01:38:03.020Z,81
2016-05-18T01:38:13.022Z,80.9
2016-05-18T01:38:22.866Z,81
2016-05-18T01:38:33.257Z,81.1
2016-05-18T01:38:42.866Z,81
2016-05-18T01:38:53.022Z,81
2016-05-18T01:39:03.022Z,80.8
2016-05-18T01:39:13.025Z,80.4
2016-05-18T01:39:23.057Z,80.2
2016-05-18T01:39:33.025Z,80.7
2016-05-18T01:39:43.025Z,80.4
2016-05-18T01:39:53.025Z,80.6
2016-05-18T01:40:03.025Z,80.4
2016-05-18T01:40:12.888Z,80.5
2016-05-18T01:40:23.028Z,80.5
2016-05-18T01:40:32.888Z,80.5
2016-05-18T01:40:43.044Z,80.7
2016-05-18T01:40:53.060Z,80.8
2016-05-18T01:41:03.044Z,80.7
2016-05-18T01:41:13.047Z,80.8
2016-05-18T01:41:23.063Z,80.7
2016-05-18T01:41:33.063Z,80.6
2016-05-18T01:41:43.063Z,80.7
2016-05-18T01:41:53.063Z,80.7
2016-05-18T01:42:03.063Z,80.7
2016-05-18T01:42:13.065Z,80.6
2016-05-18T01:42:23.080Z,80.5
2016-05-18T01:42:33.065Z,80.7
2016-05-18T01:42:43.065Z,80.7
2016-05-18T01:42:53.065Z,80.7
2016-05-18T01:43:03.080Z,80.5
2016-05-18T01:43:12.927Z,80.6
2016-05-18T01:43:23.083Z,80.5
2016-05-18T01:43:33.083Z,80.3
2016-05-18T01:43:43.099Z,80.5
2016-05-18T01:43:52.927Z,80.9
2016-05-18T01:44:02.943Z,81
2016-05-18T01:44:13.086Z,81.1
2016-05-18T01:44:23.086Z,81.1
2016-05-18T01:44:33.086Z,81
2016-05-18T01:44:43.102Z,81
2016-05-18T01:44:53.102Z,80.9
2016-05-18T01:45:03.102Z,81
2016-05-18T01:45:13.104Z,81
2016-05-18T01:45:23.104Z,81
2016-05-18T01:45:33.104Z,81
2016-05-18T01:45:43.104Z,81
2016-05-18T01:45:53.104Z,80.9
2016-05-18T01:46:03.104Z,80.9
2016-05-18T01:46:13.123Z,80.9
2016-05-18T01:46:23.138Z,81
2016-05-18T01:46:33.138Z,81
2016-05-18T01:46:43.138Z,80.9
2016-05-18T01:46:53.123Z,81
2016-05-18T01:47:03.123Z,80.9
2016-05-18T01:47:13.141Z,80.9
2016-05-18T01:47:23.141Z,80.9
2016-05-18T01:47:33.126Z,81
2016-05-18T01:47:43.126Z,80.8
2016-05-18T01:47:53.141Z,80.9
2016-05-18T01:48:03.157Z,80.9
2016-05-18T01:48:13.160Z,81
2016-05-18T01:48:22.988Z,81
2016-05-18T01:48:33.160Z,81
2016-05-18T01:48:43.144Z,80.9
2016-05-18T01:48:53.175Z,80.9
2016-05-18T01:49:03.004Z,81
2016-05-18T01:49:13.162Z,80.9
2016-05-18T01:49:23.162Z,80.9
2016-05-18T01:49:33.162Z,81.1
2016-05-18T01:49:43.162Z,80.8
2016-05-18T01:49:53.006Z,81
2016-05-18T01:50:03.162Z,80.9
2016-05-18T01:50:13.165Z,80.9
2016-05-18T01:50:23.165Z,80.9
2016-05-18T01:50:33.024Z,80.7
2016-05-18T01:50:43.180Z,80.9
2016-05-18T01:50:53.180Z,81.4
2016-05-18T01:51:03.024Z,81.3
2016-05-18T01:51:13.198Z,81.6
2016-05-18T01:51:22.870Z,81.7
2016-05-18T01:51:33.182Z,81.9
2016-05-18T01:51:43.026Z,82
2016-05-18T01:51:53.198Z,82.3
2016-05-18T01:52:03.182Z,82.9
2016-05-18T01:52:13.201Z,83.2
2016-05-18T01:52:23.201Z,83.3
2016-05-18T01:52:33.045Z,83.4
2016-05-18T01:52:43.248Z,83.5
2016-05-18T01:52:53.732Z,84.4
2016-05-18T01:53:03.795Z,84.6
2016-05-18T01:53:13.579Z,85.2
2016-05-18T01:53:23.329Z,85.2
2016-05-18T01:53:33.220Z,85.8
2016-05-18T01:53:43.204Z,86.4
2016-05-18T01:53:53.220Z,86.5
2016-05-18T01:54:03.220Z,87.1
2016-05-18T01:54:13.222Z,87.5
2016-05-18T01:54:23.065Z,87.2
2016-05-18T01:54:33.237Z,87.3
2016-05-18T01:54:43.222Z,87.2
2016-05-18T01:54:53.222Z,87.7
2016-05-18T01:55:03.222Z,87.8
2016-05-18T01:55:13.240Z,87.7
2016-05-18T01:55:23.240Z,88.4
2016-05-18T01:55:33.240Z,88.5
2016-05-18T01:55:43.240Z,89.1
2016-05-18T01:55:52.928Z,88.9
2016-05-18T01:56:03.240Z,89.5
2016-05-18T01:56:13.103Z,89.3
2016-05-18T01:56:23.243Z,89.9
2016-05-18T01:56:33.259Z,89.2
2016-05-18T01:56:43.259Z,89.7
2016-05-18T01:56:53.259Z,90.1
2016-05-18T01:57:03.259Z,89.7
2016-05-18T01:57:13.246Z,89.5
2016-05-18T01:57:23.262Z,89.5
2016-05-18T01:57:33.262Z,89
2016-05-18T01:57:43.106Z,89.2
2016-05-18T01:57:53.121Z,89.2
2016-05-18T01:58:03.262Z,89.6
2016-05-18T01:58:13.280Z,90
2016-05-18T01:58:23.139Z,89.7
2016-05-18T01:58:33.280Z,90.4
2016-05-18T01:58:43.123Z,90.4
2016-05-18T01:58:53.295Z,90.4
2016-05-18T01:59:03.280Z,90.9
2016-05-18T01:59:13.126Z,91.4
2016-05-18T01:59:23.142Z,91.3
2016-05-18T01:59:33.283Z,91.5
2016-05-18T01:59:43.298Z,91.6
2016-05-18T01:59:53.298Z,91.7
2016-05-18T02:00:03.283Z,91.9
2016-05-18T02:00:13.301Z,91.6
2016-05-18T02:00:23.301Z,92.1
2016-05-18T02:00:33.301Z,91.9
2016-05-18T02:00:43.301Z,91.9
2016-05-18T02:00:53.301Z,91.7
2016-05-18T02:01:03.161Z,92
2016-05-18T02:01:13.303Z,91.8
2016-05-18T02:01:23.163Z,91.9
2016-05-18T02:01:33.303Z,92
2016-05-18T02:01:43.319Z,91.8
2016-05-18T02:01:53.319Z,92.1
2016-05-18T02:02:03.319Z,92.2
2016-05-18T02:02:13.167Z,92
2016-05-18T02:02:23.323Z,92.4
2016-05-18T02:02:33.323Z,92.4
2016-05-18T02:02:43.323Z,92.3
2016-05-18T02:02:53.323Z,92.7
2016-05-18T02:03:03.323Z,92.5
2016-05-18T02:03:13.169Z,92.5
2016-05-18T02:03:23.340Z,93
2016-05-18T02:03:33.325Z,92.9
2016-05-18T02:03:43.340Z,92.7
2016-05-18T02:03:53.340Z,92.7
2016-05-18T02:04:03.340Z,92.8
2016-05-18T02:04:13.186Z,92.7
2016-05-18T02:04:23.202Z,92.8
2016-05-18T02:04:33.342Z,92.9
2016-05-18T02:04:43.202Z,92.8
2016-05-18T02:04:53.342Z,92.8
2016-05-18T02:05:03.217Z,92.5
2016-05-18T02:05:13.361Z,92.5
2016-05-18T02:05:23.205Z,92.5
2016-05-18T02:05:33.361Z,92.6
2016-05-18T02:05:43.220Z,92.4
2016-05-18T02:05:53.377Z,92.5
2016-05-18T02:06:03.377Z,92.4
2016-05-18T02:06:13.380Z,92.5
2016-05-18T02:06:23.395Z,92.2
2016-05-18T02:06:33.380Z,92.3
2016-05-18T02:06:43.223Z,92.6
2016-05-18T02:06:53.067Z,92.5
2016-05-18T02:07:03.364Z,92.5
2016-05-18T02:07:13.225Z,92.5
2016-05-18T02:07:23.397Z,92.7
2016-05-18T02:07:33.100Z,93
2016-05-18T02:07:43.569Z,92.9
2016-05-18T02:07:53.647Z,92.8
2016-05-18T02:08:03.600Z,92.9
2016-05-18T02:08:13.260Z,93.1
2016-05-18T02:08:23.291Z,93.2
2016-05-18T02:08:33.572Z,93.1
2016-05-18T02:08:43.400Z,92.8
2016-05-18T02:08:53.260Z,92.8
2016-05-18T02:09:03.400Z,92.9
2016-05-18T02:09:13.419Z,92.7
2016-05-18T02:09:23.419Z,93.3
2016-05-18T02:09:33.419Z,93.2
2016-05-18T02:09:43.403Z,93.2
2016-05-18T02:09:53.419Z,92.8
2016-05-18T02:10:03.419Z,92.7
2016-05-18T02:10:13.421Z,92.9
2016-05-18T02:10:23.265Z,92.9
2016-05-18T02:10:33.421Z,92.8
2016-05-18T02:10:43.421Z,92.8
2016-05-18T02:10:53.421Z,92.9
2016-05-18T02:11:03.437Z,93
2016-05-18T02:11:13.441Z,92.9
2016-05-18T02:11:23.441Z,92.8
2016-05-18T02:11:33.441Z,93
2016-05-18T02:11:43.441Z,92.5
2016-05-18T02:11:53.441Z,92.5
2016-05-18T02:12:03.441Z,92.4
2016-05-18T02:12:13.443Z,92.7
2016-05-18T02:12:23.443Z,92.5
2016-05-18T02:12:33.458Z,92.3
2016-05-18T02:12:43.458Z,92.5
2016-05-18T02:12:53.474Z,92.4
2016-05-18T02:13:03.161Z,92.4
2016-05-18T02:13:13.460Z,92.7
2016-05-18T02:13:23.491Z,92.2
2016-05-18T02:13:33.476Z,91.8
2016-05-18T02:13:43.460Z,91.9
2016-05-18T02:13:53.460Z,92
2016-05-18T02:14:03.320Z,92
2016-05-18T02:14:13.480Z,91.6
2016-05-18T02:14:23.324Z,91